KYKN/YKN METAR and TAF weather

Enter ICAO airport designator
Station Type Date Time Source
KYKN METAR 2022/01/19 18:56 UTC NOAA

KYKN 191856Z AUTO 33019G24KT 10SM CLR M14/M21 A3056 RMK AO2 SLP392 T11391211 FZRANO


Station Type Date Time Source
KYKN Decoded METAR 2022/01/19 18:56 UTC NOAA

Yankton, Chan Gurney Municipal Airport, SD, United States (KYKN) 42-55N 097-23W
Jan 19, 2022 - 01:56 PM EST / 2022.01.19 1856 UTC
Wind: from the NNW (330 degrees) at 22 MPH (19 KT) gusting to 28 MPH (24 KT):0
Visibility: 10 mile(s):0
Sky conditions: clear
Temperature: 7.0 F (-13.9 C)
Windchill: -13 F (-25 C):2
Dew Point: -6.0 F (-21.1 C)
Relative Humidity: 54%
Pressure (altimeter): 30.56 in. Hg (1034 hPa)
ob: KYKN 191856Z AUTO 33019G24KT 10SM CLR M14/M21 A3056 RMK AO2 SLP392 T11391211 FZRANO
cycle: 19

Station Type Date Time Source
KYKN TAF UTC NOAA

Error!

Example: see airport list